sensor_id;sensor_type;location;lat;lon;timestamp;pressure;altitude;pressure_sealevel;temperature;humidity
79457;BME280;69494;43.654;3.884;2024-03-23T00:55:44;101437.31;;;13.99;91.63
79457;BME280;69494;43.654;3.884;2024-03-23T00:58:09;101439.13;;;13.95;91.65
79457;BME280;69494;43.654;3.884;2024-03-23T01:00:35;101442.66;;;13.91;91.75
79457;BME280;69494;43.654;3.884;2024-03-23T01:03:00;101441.84;;;13.86;91.87
79457;BME280;69494;43.654;3.884;2024-03-23T01:05:26;101447.88;;;13.89;91.99
79457;BME280;69494;43.654;3.884;2024-03-23T01:07:51;101444.41;;;13.90;92.09
79457;BME280;69494;43.654;3.884;2024-03-23T01:10:16;101443.41;;;13.99;91.88
79457;BME280;69494;43.654;3.884;2024-03-23T01:12:42;101439.88;;;14.00;91.70
79457;BME280;69494;43.654;3.884;2024-03-23T01:15:07;101452.06;;;14.01;91.61
79457;BME280;69494;43.654;3.884;2024-03-23T01:17:33;101447.81;;;13.96;91.82
79457;BME280;69494;43.654;3.884;2024-03-23T01:19:58;101448.72;;;13.93;92.04
79457;BME280;69494;43.654;3.884;2024-03-23T01:22:23;101443.47;;;13.93;92.01
79457;BME280;69494;43.654;3.884;2024-03-23T01:24:49;101441.78;;;13.90;91.86
79457;BME280;69494;43.654;3.884;2024-03-23T01:27:14;101440.13;;;13.85;91.88
79457;BME280;69494;43.654;3.884;2024-03-23T01:29:39;101438.41;;;13.82;92.46
79457;BME280;69494;43.654;3.884;2024-03-23T01:32:05;101434.09;;;13.81;91.69
79457;BME280;69494;43.654;3.884;2024-03-23T01:34:31;101426.28;;;13.80;92.00
79457;BME280;69494;43.654;3.884;2024-03-23T01:36:56;101434.06;;;13.84;91.97
79457;BME280;69494;43.654;3.884;2024-03-23T01:39:21;101414.91;;;13.82;91.94
79457;BME280;69494;43.654;3.884;2024-03-23T01:41:47;101419.28;;;13.82;91.85
79457;BME280;69494;43.654;3.884;2024-03-23T01:44:12;101414.91;;;13.82;91.78
79457;BME280;69494;43.654;3.884;2024-03-23T01:46:38;101428.91;;;13.80;91.87
79457;BME280;69494;43.654;3.884;2024-03-23T01:49:07;101421.13;;;13.75;91.91
79457;BME280;69494;43.654;3.884;2024-03-23T01:51:34;101428.06;;;13.78;91.95
79457;BME280;69494;43.654;3.884;2024-03-23T01:54:01;101432.44;;;13.76;91.74
79457;BME280;69494;43.654;3.884;2024-03-23T01:56:29;101428.03;;;13.79;91.87
79457;BME280;69494;43.654;3.884;2024-03-23T01:58:55;101420.19;;;13.81;92.01
79457;BME280;69494;43.654;3.884;2024-03-23T02:01:20;101425.38;;;13.82;92.08
79457;BME280;69494;43.654;3.884;2024-03-23T02:03:46;101434.13;;;13.80;92.06
79457;BME280;69494;43.654;3.884;2024-03-23T02:06:11;101434.16;;;13.77;92.07
79457;BME280;69494;43.654;3.884;2024-03-23T02:08:37;101422.97;;;13.68;92.26
79457;BME280;69494;43.654;3.884;2024-03-23T02:11:02;101425.63;;;13.64;92.69
79457;BME280;69494;43.654;3.884;2024-03-23T02:13:27;101422.19;;;13.63;93.03
79457;BME280;69494;43.654;3.884;2024-03-23T02:15:53;101415.19;;;13.65;93.17
79457;BME280;69494;43.654;3.884;2024-03-23T02:18:18;101417.78;;;13.67;92.65
79457;BME280;69494;43.654;3.884;2024-03-23T02:20:44;101430.81;;;13.67;92.42
79457;BME280;69494;43.654;3.884;2024-03-23T02:23:16;101423.03;;;13.64;92.46
79457;BME280;69494;43.654;3.884;2024-03-23T02:25:43;101418.66;;;13.64;92.78
79457;BME280;69494;43.654;3.884;2024-03-23T02:28:08;101422.19;;;13.62;92.59
79457;BME280;69494;43.654;3.884;2024-03-23T02:30:34;101418.75;;;13.60;92.82
79457;BME280;69494;43.654;3.884;2024-03-23T02:32:59;101417.03;;;13.56;93.15
79457;BME280;69494;43.654;3.884;2024-03-23T02:35:25;101415.38;;;13.51;93.25
79457;BME280;69494;43.654;3.884;2024-03-23T02:37:50;101413.75;;;13.43;93.33
79457;BME280;69494;43.654;3.884;2024-03-23T02:40:16;101425.16;;;13.34;93.97
79457;BME280;69494;43.654;3.884;2024-03-23T02:42:42;101426.06;;;13.31;94.17
79457;BME280;69494;43.654;3.884;2024-03-23T02:45:08;101421.75;;;13.27;94.27
79457;BME280;69494;43.654;3.884;2024-03-23T02:47:33;101425.22;;;13.28;94.43
79457;BME280;69494;43.654;3.884;2024-03-23T02:49:59;101420.91;;;13.25;94.45
79457;BME280;69494;43.654;3.884;2024-03-23T02:52:25;101418.34;;;13.22;94.54
79457;BME280;69494;43.654;3.884;2024-03-23T02:54:51;101409.69;;;13.17;94.78
79457;BME280;69494;43.654;3.884;2024-03-23T02:57:16;101407.06;;;13.20;94.78
79457;BME280;69494;43.654;3.884;2024-03-23T02:59:42;101387.91;;;13.21;94.76
79457;BME280;69494;43.654;3.884;2024-03-23T03:02:07;101380.09;;;13.20;94.58
79457;BME280;69494;43.654;3.884;2024-03-23T03:04:33;101381.84;;;13.21;94.68
79457;BME280;69494;43.654;3.884;2024-03-23T03:06:58;101391.41;;;13.22;94.41
79457;BME280;69494;43.654;3.884;2024-03-23T03:09:24;101384.47;;;13.19;94.29
79457;BME280;69494;43.654;3.884;2024-03-23T03:11:49;101391.47;;;13.15;94.15
79457;BME280;69494;43.654;3.884;2024-03-23T03:14:15;101414.16;;;13.07;94.41
79457;BME280;69494;43.654;3.884;2024-03-23T03:16:40;101415.16;;;12.99;94.63
79457;BME280;69494;43.654;3.884;2024-03-23T03:19:05;101396.94;;;12.94;94.75
79457;BME280;69494;43.654;3.884;2024-03-23T03:21:31;101377.00;;;12.91;95.26
79457;BME280;69494;43.654;3.884;2024-03-23T03:23:57;101382.13;;;12.97;95.13
79457;BME280;69494;43.654;3.884;2024-03-23T03:26:23;101379.63;;;12.90;94.96
79457;BME280;69494;43.654;3.884;2024-03-23T03:28:49;101378.81;;;12.82;95.19
79457;BME280;69494;43.654;3.884;2024-03-23T03:31:15;101399.78;;;12.74;95.62
79457;BME280;69494;43.654;3.884;2024-03-23T03:33:41;101418.97;;;12.67;95.97
79457;BME280;69494;43.654;3.884;2024-03-23T03:36:07;101420.84;;;12.54;95.91
79457;BME280;69494;43.654;3.884;2024-03-23T03:38:32;101417.41;;;12.49;96.30
79457;BME280;69494;43.654;3.884;2024-03-23T03:41:00;101413.13;;;12.43;96.06
79457;BME280;69494;43.654;3.884;2024-03-23T03:43:25;101407.97;;;12.35;96.09
79457;BME280;69494;43.654;3.884;2024-03-23T03:45:56;101392.38;;;12.32;95.47
79457;BME280;69494;43.654;3.884;2024-03-23T03:48:22;101393.25;;;12.31;95.30
79457;BME280;69494;43.654;3.884;2024-03-23T03:50:47;101383.69;;;12.32;94.84
79457;BME280;69494;43.654;3.884;2024-03-23T03:53:13;101379.31;;;12.34;94.71
79457;BME280;69494;43.654;3.884;2024-03-23T03:55:38;101382.00;;;12.28;94.63
79457;BME280;69494;43.654;3.884;2024-03-23T03:58:03;101392.41;;;12.28;94.61
79457;BME280;69494;43.654;3.884;2024-03-23T04:00:30;101395.88;;;12.28;94.61
79457;BME280;69494;43.654;3.884;2024-03-23T04:02:56;101411.53;;;12.25;94.54
79457;BME280;69494;43.654;3.884;2024-03-23T04:05:21;101416.81;;;12.16;94.65
79457;BME280;69494;43.654;3.884;2024-03-23T04:07:47;101419.44;;;12.14;94.79
79457;BME280;69494;43.654;3.884;2024-03-23T04:10:13;101412.47;;;12.16;94.47
79457;BME280;69494;43.654;3.884;2024-03-23T04:12:39;101409.88;;;12.16;94.31
79457;BME280;69494;43.654;3.884;2024-03-23T04:15:05;101403.84;;;12.11;94.19
79457;BME280;69494;43.654;3.884;2024-03-23T04:17:31;101407.31;;;12.09;94.14
79457;BME280;69494;43.654;3.884;2024-03-23T04:19:58;101409.91;;;12.09;94.21
79457;BME280;69494;43.654;3.884;2024-03-23T04:22:24;101405.63;;;12.05;94.23
79457;BME280;69494;43.654;3.884;2024-03-23T04:24:52;101408.16;;;12.12;94.12
79457;BME280;69494;43.654;3.884;2024-03-23T04:27:18;101397.69;;;12.20;93.90
79457;BME280;69494;43.654;3.884;2024-03-23T04:29:50;101378.63;;;12.16;93.45
79457;BME280;69494;43.654;3.884;2024-03-23T04:32:16;101375.13;;;12.16;93.46
79457;BME280;69494;43.654;3.884;2024-03-23T04:34:42;101374.34;;;12.11;93.41
79457;BME280;69494;43.654;3.884;2024-03-23T04:37:08;101379.59;;;12.03;93.79
79457;BME280;69494;43.654;3.884;2024-03-23T04:39:35;101393.44;;;12.07;93.78
79457;BME280;69494;43.654;3.884;2024-03-23T04:42:01;101394.28;;;12.09;93.98
79457;BME280;69494;43.654;3.884;2024-03-23T04:44:26;101403.00;;;12.09;94.13
79457;BME280;69494;43.654;3.884;2024-03-23T04:46:51;101391.75;;;12.06;93.82
79457;BME280;69494;43.654;3.884;2024-03-23T04:49:17;101382.16;;;12.11;93.98
79457;BME280;69494;43.654;3.884;2024-03-23T04:51:42;101370.88;;;12.07;93.78
79457;BME280;69494;43.654;3.884;2024-03-23T04:54:14;101370.00;;;12.08;93.73
79457;BME280;69494;43.654;3.884;2024-03-23T04:56:39;101380.44;;;12.07;93.74
79457;BME280;69494;43.654;3.884;2024-03-23T04:59:05;101375.28;;;12.02;93.50
79457;BME280;69494;43.654;3.884;2024-03-23T05:01:31;101369.25;;;11.97;93.43
79457;BME280;69494;43.654;3.884;2024-03-23T05:03:57;101366.69;;;11.85;93.50
79457;BME280;69494;43.654;3.884;2024-03-23T05:06:23;101371.88;;;11.88;93.89
79457;BME280;69494;43.654;3.884;2024-03-23T05:08:49;101370.16;;;11.83;93.83
79457;BME280;69494;43.654;3.884;2024-03-23T05:11:15;101367.53;;;11.88;93.97
79457;BME280;69494;43.654;3.884;2024-03-23T05:13:41;101364.09;;;11.81;93.81
79457;BME280;69494;43.654;3.884;2024-03-23T05:16:07;101364.94;;;11.85;93.92
79457;BME280;69494;43.654;3.884;2024-03-23T05:18:33;101375.34;;;11.88;93.82
79457;BME280;69494;43.654;3.884;2024-03-23T05:20:59;101386.63;;;11.87;93.87
79457;BME280;69494;43.654;3.884;2024-03-23T05:23:30;101390.97;;;11.83;93.61
79457;BME280;69494;43.654;3.884;2024-03-23T05:25:56;101389.34;;;11.73;93.79
79457;BME280;69494;43.654;3.884;2024-03-23T05:28:22;101397.16;;;11.72;94.06
79457;BME280;69494;43.654;3.884;2024-03-23T05:30:51;101416.22;;;11.69;94.07
79457;BME280;69494;43.654;3.884;2024-03-23T05:33:18;101416.28;;;11.63;93.75
79457;BME280;69494;43.654;3.884;2024-03-23T05:35:44;101418.97;;;11.49;93.78
79457;BME280;69494;43.654;3.884;2024-03-23T05:38:09;101438.06;;;11.47;94.44
79457;BME280;69494;43.654;3.884;2024-03-23T05:40:35;101445.03;;;11.40;94.16
79457;BME280;69494;43.654;3.884;2024-03-23T05:43:03;101452.84;;;11.34;94.40
79457;BME280;69494;43.654;3.884;2024-03-23T05:45:28;101464.97;;;11.33;94.58
79457;BME280;69494;43.654;3.884;2024-03-23T05:47:54;101457.22;;;11.22;94.40
79457;BME280;69494;43.654;3.884;2024-03-23T05:50:22;101465.03;;;11.21;95.12
79457;BME280;69494;43.654;3.884;2024-03-23T05:52:47;101462.41;;;11.24;95.10
79457;BME280;69494;43.654;3.884;2024-03-23T05:55:13;101460.69;;;11.26;95.25
79457;BME280;69494;43.654;3.884;2024-03-23T05:57:38;101453.72;;;11.26;95.15
79457;BME280;69494;43.654;3.884;2024-03-23T06:00:05;101457.22;;;11.24;95.12
79457;BME280;69494;43.654;3.884;2024-03-23T06:02:35;101452.03;;;11.24;95.30
79457;BME280;69494;43.654;3.884;2024-03-23T06:05:00;101447.66;;;11.26;94.98
79457;BME280;69494;43.654;3.884;2024-03-23T06:07:27;101446.81;;;11.29;95.14
79457;BME280;69494;43.654;3.884;2024-03-23T06:09:52;101459.78;;;11.30;95.04
79457;BME280;69494;43.654;3.884;2024-03-23T06:12:18;101466.69;;;11.37;94.88
79457;BME280;69494;43.654;3.884;2024-03-23T06:14:43;101462.34;;;11.42;94.48
79457;BME280;69494;43.654;3.884;2024-03-23T06:17:09;101453.63;;;11.51;94.12
79457;BME280;69494;43.654;3.884;2024-03-23T06:19:34;101465.72;;;11.63;93.49
79457;BME280;69494;43.654;3.884;2024-03-23T06:21:59;101465.66;;;11.74;92.92
79457;BME280;69494;43.654;3.884;2024-03-23T06:24:25;101480.34;;;11.95;92.23
79457;BME280;69494;43.654;3.884;2024-03-23T06:26:50;101480.56;;;12.77;88.78
79457;BME280;69494;43.654;3.884;2024-03-23T06:29:16;101474.44;;;13.59;81.40
79457;BME280;69494;43.654;3.884;2024-03-23T06:31:41;101473.31;;;14.36;75.89
79457;BME280;69494;43.654;3.884;2024-03-23T06:34:06;101475.44;;;15.13;67.65
79457;BME280;69494;43.654;3.884;2024-03-23T06:36:32;101464.47;;;15.80;64.62
79457;BME280;69494;43.654;3.884;2024-03-23T06:38:58;101461.28;;;16.41;61.19
79457;BME280;69494;43.654;3.884;2024-03-23T06:41:24;101470.63;;;16.87;60.20
79457;BME280;69494;43.654;3.884;2024-03-23T06:43:49;101479.44;;;16.84;59.77
79457;BME280;69494;43.654;3.884;2024-03-23T06:46:15;101474.44;;;17.38;55.96
79457;BME280;69494;43.654;3.884;2024-03-23T06:48:40;101478.69;;;17.71;55.50
79457;BME280;69494;43.654;3.884;2024-03-23T06:51:05;101482.00;;;17.48;56.01
79457;BME280;69494;43.654;3.884;2024-03-23T06:53:31;101480.66;;;17.04;56.09
79457;BME280;69494;43.654;3.884;2024-03-23T06:55:57;101500.09;;;16.62;57.36
79457;BME280;69494;43.654;3.884;2024-03-23T06:58:24;101489.44;;;16.32;58.18
79457;BME280;69494;43.654;3.884;2024-03-23T07:00:50;101498.22;;;16.31;57.80
79457;BME280;69494;43.654;3.884;2024-03-23T07:03:19;101494.63;;;16.35;57.58
79457;BME280;69494;43.654;3.884;2024-03-23T07:05:45;101500.00;;;16.29;57.71
79457;BME280;69494;43.654;3.884;2024-03-23T07:08:11;101511.34;;;16.31;57.62
79457;BME280;69494;43.654;3.884;2024-03-23T07:10:40;101504.38;;;16.30;57.51
79457;BME280;69494;43.654;3.884;2024-03-23T07:13:05;101494.56;;;16.38;57.80
79457;BME280;69494;43.654;3.884;2024-03-23T07:15:30;101502.03;;;16.54;57.78
79457;BME280;69494;43.654;3.884;2024-03-23T07:17:56;101503.09;;;16.47;57.21
79457;BME280;69494;43.654;3.884;2024-03-23T07:20:21;101498.75;;;16.46;57.16
79457;BME280;69494;43.654;3.884;2024-03-23T07:22:46;101498.84;;;16.41;56.95
79457;BME280;69494;43.654;3.884;2024-03-23T07:25:15;101505.19;;;16.32;56.70
79457;BME280;69494;43.654;3.884;2024-03-23T07:27:40;101492.81;;;16.37;56.51
79457;BME280;69494;43.654;3.884;2024-03-23T07:30:06;101503.50;;;16.66;55.79
79457;BME280;69494;43.654;3.884;2024-03-23T07:32:32;101501.41;;;16.78;54.55
79457;BME280;69494;43.654;3.884;2024-03-23T07:34:58;101508.59;;;17.06;52.53
79457;BME280;69494;43.654;3.884;2024-03-23T07:37:23;101509.06;;;17.52;51.12
79457;BME280;69494;43.654;3.884;2024-03-23T07:39:48;101513.75;;;17.70;51.20
79457;BME280;69494;43.654;3.884;2024-03-23T07:42:14;101519.72;;;17.76;50.52
79457;BME280;69494;43.654;3.884;2024-03-23T07:44:39;101515.72;;;17.64;49.63
79457;BME280;69494;43.654;3.884;2024-03-23T07:47:05;101518.88;;;17.45;49.66
79457;BME280;69494;43.654;3.884;2024-03-23T07:49:30;101501.81;;;17.29;48.60
79457;BME280;69494;43.654;3.884;2024-03-23T07:51:56;101522.72;;;17.01;48.95
79457;BME280;69494;43.654;3.884;2024-03-23T07:54:21;101524.03;;;16.84;48.43
79457;BME280;69494;43.654;3.884;2024-03-23T07:56:46;101533.75;;;16.79;48.60
79457;BME280;69494;43.654;3.884;2024-03-23T07:59:12;101539.03;;;16.77;48.17
79457;BME280;69494;43.654;3.884;2024-03-23T08:01:37;101536.47;;;16.76;48.11
79457;BME280;69494;43.654;3.884;2024-03-23T08:04:02;101542.28;;;16.89;48.64
79457;BME280;69494;43.654;3.884;2024-03-23T08:06:28;101532.53;;;17.27;46.09
79457;BME280;69494;43.654;3.884;2024-03-23T08:08:57;101548.59;;;17.47;45.14
79457;BME280;69494;43.654;3.884;2024-03-23T08:11:26;101535.66;;;17.71;45.52
79457;BME280;69494;43.654;3.884;2024-03-23T08:13:53;101543.56;;;17.69;44.04
79457;BME280;69494;43.654;3.884;2024-03-23T08:16:18;101535.78;;;17.66;44.86
79457;BME280;69494;43.654;3.884;2024-03-23T08:18:43;101531.22;;;17.73;44.24
79457;BME280;69494;43.654;3.884;2024-03-23T08:21:09;101557.84;;;17.92;43.98
79457;BME280;69494;43.654;3.884;2024-03-23T08:23:35;101543.44;;;18.04;43.53
79457;BME280;69494;43.654;3.884;2024-03-23T08:26:04;101548.41;;;18.13;43.33
79457;BME280;69494;43.654;3.884;2024-03-23T08:28:31;101547.38;;;18.19;42.78
79457;BME280;69494;43.654;3.884;2024-03-23T08:30:56;101569.38;;;18.16;43.13
79457;BME280;69494;43.654;3.884;2024-03-23T08:33:25;101571.31;;;18.09;42.85
79457;BME280;69494;43.654;3.884;2024-03-23T08:36:00;101581.03;;;18.07;42.51
79457;BME280;69494;43.654;3.884;2024-03-23T08:38:27;101571.47;;;18.05;41.23
79457;BME280;69494;43.654;3.884;2024-03-23T08:41:05;101586.81;;;18.19;41.91
79457;BME280;69494;43.654;3.884;2024-03-23T08:43:32;101601.06;;;18.40;41.66
79457;BME280;69494;43.654;3.884;2024-03-23T08:46:11;101586.47;;;18.58;42.25
79457;BME280;69494;43.654;3.884;2024-03-23T08:48:39;101609.00;;;18.66;41.27
79457;BME280;69494;43.654;3.884;2024-03-23T08:51:06;101609.66;;;18.73;41.33
79457;BME280;69494;43.654;3.884;2024-03-23T08:53:32;101621.56;;;18.85;41.50
79457;BME280;69494;43.654;3.884;2024-03-23T08:55:58;101626.22;;;18.77;40.93
79457;BME280;69494;43.654;3.884;2024-03-23T08:58:26;101620.06;;;18.50;40.71
79457;BME280;69494;43.654;3.884;2024-03-23T09:00:52;101634.53;;;18.35;42.08
79457;BME280;69494;43.654;3.884;2024-03-23T09:03:20;101622.72;;;18.20;40.73
79457;BME280;69494;43.654;3.884;2024-03-23T09:05:46;101631.50;;;18.19;41.98
79457;BME280;69494;43.654;3.884;2024-03-23T09:08:11;101630.53;;;18.23;41.83
79457;BME280;69494;43.654;3.884;2024-03-23T09:10:40;101633.50;;;18.40;42.28
79457;BME280;69494;43.654;3.884;2024-03-23T09:13:06;101625.75;;;18.64;41.83
79457;BME280;69494;43.654;3.884;2024-03-23T09:15:33;101633.56;;;18.94;40.75
79457;BME280;69494;43.654;3.884;2024-03-23T09:17:59;101620.94;;;19.05;40.64
79457;BME280;69494;43.654;3.884;2024-03-23T09:20:25;101640.06;;;19.10;40.27
79457;BME280;69494;43.654;3.884;2024-03-23T09:22:50;101626.38;;;18.99;41.11
79457;BME280;69494;43.654;3.884;2024-03-23T09:25:16;101624.88;;;18.92;40.65
79457;BME280;69494;43.654;3.884;2024-03-23T09:27:41;101630.81;;;18.98;40.81
79457;BME280;69494;43.654;3.884;2024-03-23T09:30:07;101622.16;;;19.20;41.05
79457;BME280;69494;43.654;3.884;2024-03-23T09:32:32;101630.28;;;19.14;40.14
79457;BME280;69494;43.654;3.884;2024-03-23T09:34:58;101626.25;;;19.03;41.56
79457;BME280;69494;43.654;3.884;2024-03-23T09:37:23;101624.91;;;19.17;41.34
79457;BME280;69494;43.654;3.884;2024-03-23T09:39:48;101622.22;;;19.18;41.13
79457;BME280;69494;43.654;3.884;2024-03-23T09:42:14;101633.53;;;18.95;41.98
79457;BME280;69494;43.654;3.884;2024-03-23T09:44:40;101630.75;;;19.00;42.11
79457;BME280;69494;43.654;3.884;2024-03-23T09:47:07;101625.97;;;19.11;42.50
79457;BME280;69494;43.654;3.884;2024-03-23T09:49:34;101631.06;;;19.17;41.99
79457;BME280;69494;43.654;3.884;2024-03-23T09:52:02;101621.56;;;19.12;41.93
79457;BME280;69494;43.654;3.884;2024-03-23T09:54:28;101639.09;;;19.13;41.79
79457;BME280;69494;43.654;3.884;2024-03-23T09:56:53;101639.44;;;19.29;41.88
79457;BME280;69494;43.654;3.884;2024-03-23T09:59:18;101631.06;;;19.42;40.89
79457;BME280;69494;43.654;3.884;2024-03-23T10:01:44;101651.72;;;19.55;40.84
79457;BME280;69494;43.654;3.884;2024-03-23T10:04:09;101634.44;;;19.71;40.88
79457;BME280;69494;43.654;3.884;2024-03-23T10:06:35;101638.28;;;19.86;39.48
79457;BME280;69494;43.654;3.884;2024-03-23T10:09:02;101631.78;;;19.96;39.74
79457;BME280;69494;43.654;3.884;2024-03-23T10:11:27;101636.09;;;19.97;39.71
79457;BME280;69494;43.654;3.884;2024-03-23T10:13:54;101635.75;;;20.52;38.67
79457;BME280;69494;43.654;3.884;2024-03-23T10:16:22;101625.09;;;21.20;37.77
79457;BME280;69494;43.654;3.884;2024-03-23T10:18:48;101641.09;;;21.38;35.90
79457;BME280;69494;43.654;3.884;2024-03-23T10:21:15;101617.69;;;21.49;35.40
79457;BME280;69494;43.654;3.884;2024-03-23T10:23:42;101621.38;;;21.65;35.33
79457;BME280;69494;43.654;3.884;2024-03-23T10:26:17;101625.03;;;21.82;35.08
79457;BME280;69494;43.654;3.884;2024-03-23T10:29:01;101624.56;;;22.12;35.07
79457;BME280;69494;43.654;3.884;2024-03-23T10:31:28;101629.97;;;21.70;34.49
79457;BME280;69494;43.654;3.884;2024-03-23T10:33:54;101620.41;;;21.68;34.52
79457;BME280;69494;43.654;3.884;2024-03-23T10:36:21;101622.94;;;22.09;34.05
79457;BME280;69494;43.654;3.884;2024-03-23T10:38:46;101604.75;;;22.20;33.91
79457;BME280;69494;43.654;3.884;2024-03-23T10:41:12;101606.53;;;22.01;32.41
79457;BME280;69494;43.654;3.884;2024-03-23T10:43:39;101602.34;;;21.97;33.03
79457;BME280;69494;43.654;3.884;2024-03-23T10:46:05;101589.72;;;22.21;32.89
79457;BME280;69494;43.654;3.884;2024-03-23T10:48:33;101605.13;;;22.13;33.43
79457;BME280;69494;43.654;3.884;2024-03-23T10:50:59;101603.63;;;22.45;32.51
79457;BME280;69494;43.654;3.884;2024-03-23T10:53:28;101599.94;;;22.84;32.11
79457;BME280;69494;43.654;3.884;2024-03-23T10:55:55;101600.72;;;22.50;31.01
79457;BME280;69494;43.654;3.884;2024-03-23T10:58:30;101604.47;;;21.88;32.43
79457;BME280;69494;43.654;3.884;2024-03-23T11:00:56;101597.03;;;21.97;33.11
79457;BME280;69494;43.654;3.884;2024-03-23T11:03:36;101597.22;;;21.54;32.76
79457;BME280;69494;43.654;3.884;2024-03-23T11:06:07;101597.28;;;21.52;32.96
79457;BME280;69494;43.654;3.884;2024-03-23T11:13:47;101590.41;;;21.28;34.74
79457;BME280;69494;43.654;3.884;2024-03-23T11:18:48;101600.25;;;21.45;33.73
79457;BME280;69494;43.654;3.884;2024-03-23T11:21:53;101602.31;;;21.78;33.39
79457;BME280;69494;43.654;3.884;2024-03-23T11:24:19;101591.94;;;21.92;32.83
79457;BME280;69494;43.654;3.884;2024-03-23T11:26:46;101598.31;;;22.26;32.60
79457;BME280;69494;43.654;3.884;2024-03-23T11:29:15;101591.53;;;22.57;31.53
79457;BME280;69494;43.654;3.884;2024-03-23T11:31:52;101584.81;;;22.32;31.99
79457;BME280;69494;43.654;3.884;2024-03-23T11:34:19;101588.25;;;22.52;32.59
79457;BME280;69494;43.654;3.884;2024-03-23T11:36:46;101586.09;;;22.60;32.91
79457;BME280;69494;43.654;3.884;2024-03-23T11:39:16;101569.72;;;22.52;31.08
79457;BME280;69494;43.654;3.884;2024-03-23T11:41:52;101574.63;;;22.23;30.30
79457;BME280;69494;43.654;3.884;2024-03-23T11:44:19;101574.00;;;21.99;30.98
79457;BME280;69494;43.654;3.884;2024-03-23T11:46:45;101576.59;;;21.81;31.44
79457;BME280;69494;43.654;3.884;2024-03-23T11:49:26;101567.50;;;22.06;30.86
79457;BME280;69494;43.654;3.884;2024-03-23T11:51:53;101560.09;;;22.51;30.10
79457;BME280;69494;43.654;3.884;2024-03-23T11:54:23;101551.47;;;23.17;28.23
79457;BME280;69494;43.654;3.884;2024-03-23T11:57:08;101535.22;;;23.72;28.75
79457;BME280;69494;43.654;3.884;2024-03-23T11:59:40;101538.78;;;23.89;26.50
79457;BME280;69494;43.654;3.884;2024-03-23T12:02:12;101528.66;;;24.11;25.95
79457;BME280;69494;43.654;3.884;2024-03-23T12:04:41;101530.13;;;24.17;25.03
79457;BME280;69494;43.654;3.884;2024-03-23T12:07:14;101531.66;;;24.05;24.55
79457;BME280;69494;43.654;3.884;2024-03-23T12:09:40;101510.56;;;24.18;24.27
79457;BME280;69494;43.654;3.884;2024-03-23T12:14:36;101493.84;;;24.32;22.29
79457;BME280;69494;43.654;3.884;2024-03-23T12:17:14;101506.69;;;24.09;22.91
79457;BME280;69494;43.654;3.884;2024-03-23T12:19:41;101488.84;;;24.11;23.69
79457;BME280;69494;43.654;3.884;2024-03-23T12:22:07;101493.38;;;24.55;24.79
79457;BME280;69494;43.654;3.884;2024-03-23T12:24:34;101489.63;;;24.44;23.49
79457;BME280;69494;43.654;3.884;2024-03-23T12:27:03;101483.84;;;24.51;23.31
79457;BME280;69494;43.654;3.884;2024-03-23T12:29:32;101482.84;;;24.24;21.82
79457;BME280;69494;43.654;3.884;2024-03-23T12:32:02;101475.16;;;24.03;22.00
79457;BME280;69494;43.654;3.884;2024-03-23T12:34:28;101479.53;;;24.04;22.08
79457;BME280;69494;43.654;3.884;2024-03-23T12:36:55;101471.22;;;24.10;22.05
79457;BME280;69494;43.654;3.884;2024-03-23T12:39:21;101470.75;;;23.88;22.60
79457;BME280;69494;43.654;3.884;2024-03-23T12:41:47;101460.63;;;23.94;22.17
79457;BME280;69494;43.654;3.884;2024-03-23T12:44:12;101456.13;;;24.11;20.81
79457;BME280;69494;43.654;3.884;2024-03-23T12:46:39;101460.00;;;24.05;21.38
79457;BME280;69494;43.654;3.884;2024-03-23T12:49:04;101445.81;;;23.74;21.83
79457;BME280;69494;43.654;3.884;2024-03-23T12:51:30;101451.47;;;23.52;21.98
79457;BME280;69494;43.654;3.884;2024-03-23T12:53:56;101448.75;;;23.70;21.73
79457;BME280;69494;43.654;3.884;2024-03-23T12:56:21;101445.56;;;23.79;21.86
79457;BME280;69494;43.654;3.884;2024-03-23T12:58:47;101440.81;;;24.00;20.46
79457;BME280;69494;43.654;3.884;2024-03-23T13:01:17;101431.06;;;24.16;20.61
79457;BME280;69494;43.654;3.884;2024-03-23T13:03:42;101422.00;;;24.35;19.81
79457;BME280;69494;43.654;3.884;2024-03-23T13:06:10;101419.44;;;24.33;19.83
79457;BME280;69494;43.654;3.884;2024-03-23T13:08:35;101415.44;;;24.71;19.96
79457;BME280;69494;43.654;3.884;2024-03-23T13:11:01;101414.75;;;24.96;20.23
79457;BME280;69494;43.654;3.884;2024-03-23T13:13:26;101403.75;;;24.59;20.89
79457;BME280;69494;43.654;3.884;2024-03-23T13:15:52;101413.41;;;24.15;20.84
79457;BME280;69494;43.654;3.884;2024-03-23T13:18:17;101402.13;;;24.12;20.07
79457;BME280;69494;43.654;3.884;2024-03-23T13:20:42;101405.84;;;24.24;20.20
79457;BME280;69494;43.654;3.884;2024-03-23T13:23:08;101391.03;;;24.20;19.23
79457;BME280;69494;43.654;3.884;2024-03-23T13:25:34;101401.31;;;23.95;18.93
79457;BME280;69494;43.654;3.884;2024-03-23T13:27:59;101392.97;;;24.02;20.01
79457;BME280;69494;43.654;3.884;2024-03-23T13:30:26;101382.97;;;24.21;21.06
79457;BME280;69494;43.654;3.884;2024-03-23T13:32:51;101377.56;;;24.53;20.64
79457;BME280;69494;43.654;3.884;2024-03-23T13:35:17;101374.41;;;24.46;20.90
79457;BME280;69494;43.654;3.884;2024-03-23T13:37:42;101373.13;;;24.23;18.89
79457;BME280;69494;43.654;3.884;2024-03-23T13:40:08;101367.94;;;23.91;18.05
79457;BME280;69494;43.654;3.884;2024-03-23T13:42:34;101365.38;;;23.74;17.61
79457;BME280;69494;43.654;3.884;2024-03-23T13:44:59;101361.88;;;23.73;18.58
79457;BME280;69494;43.654;3.884;2024-03-23T13:47:24;101363.50;;;23.76;17.35
79457;BME280;69494;43.654;3.884;2024-03-23T13:49:50;101325.22;;;23.50;17.88
79457;BME280;69494;43.654;3.884;2024-03-23T13:52:15;101350.47;;;23.71;18.53